Time;durP1;ratioP1;P1;durP2;ratioP2;P2;SDS_P1;SDS_P2;PMS_P1;PMS_P2;Temp;Humidity;BMP_temperature;BMP_pressure;BME280_temperature;BME280_humidity;BME280_pressure;Samples;Min_cycle;Max_cycle;Signal;HPM_P1;HPM_P2
2022/05/12 00:02:43;;;;;;;14.25;5.32;;;;;;;;;;10362728;28;20056;-60
2022/05/12 00:07:44;;;;;;;9.90;5.70;;;;;;;;;;10368037;28;20453;-60
2022/05/12 00:12:46;;;;;;;10.55;5.53;;;;;;;;;;10359362;28;20088;-60
2022/05/12 00:17:47;;;;;;;8.70;5.45;;;;;;;;;;10360981;28;20042;-60
2022/05/12 00:22:48;;;;;;;10.48;5.38;;;;;;;;;;10365728;28;20101;-60
2022/05/12 00:27:49;;;;;;;7.93;5.18;;;;;;;;;;10366358;28;20482;-61
2022/05/12 00:32:49;;;;;;;13.65;5.55;;;;;;;;;;10362635;28;20113;-60
2022/05/12 00:37:50;;;;;;;9.93;5.35;;;;;;;;;;10364858;28;20406;-60
2022/05/12 00:42:59;;;;;;;7.88;4.93;;;;;;;;;;10364763;28;20029;-60
2022/05/12 00:48:00;;;;;;;8.40;5.40;;;;;;;;;;10366811;28;20061;-60
2022/05/12 00:53:04;;;;;;;9.23;5.25;;;;;;;;;;10365052;28;20517;-60
2022/05/12 00:58:13;;;;;;;6.93;5.00;;;;;;;;;;10366253;28;20397;-60
2022/05/12 01:03:20;;;;;;;7.25;4.80;;;;;;;;;;10358706;28;20109;-60
2022/05/12 01:08:23;;;;;;;7.53;5.67;;;;;;;;;;10361330;28;20036;-59
2022/05/12 01:13:24;;;;;;;8.10;4.97;;;;;;;;;;10357453;28;20436;-60
2022/05/12 01:18:26;;;;;;;8.32;5.22;;;;;;;;;;10348865;28;20038;-60
2022/05/12 01:23:39;;;;;;;8.18;5.07;;;;;;;;;;10364529;28;20064;-60
2022/05/12 01:28:40;;;;;;;9.35;5.20;;;;;;;;;;10366344;28;20088;-60
2022/05/12 01:33:41;;;;;;;8.00;5.20;;;;;;;;;;10357265;28;20049;-60
2022/05/12 01:38:42;;;;;;;6.38;4.95;;;;;;;;;;10365049;28;20044;-60
2022/05/12 01:43:43;;;;;;;7.32;4.75;;;;;;;;;;10365370;28;20539;-60
2022/05/12 01:48:44;;;;;;;6.10;4.70;;;;;;;;;;10368226;28;20132;-60
2022/05/12 01:53:44;;;;;;;8.73;5.00;;;;;;;;;;10370610;28;20043;-59
2022/05/12 01:58:45;;;;;;;8.10;4.93;;;;;;;;;;10373256;28;20034;-59
2022/05/12 02:03:45;;;;;;;7.30;4.93;;;;;;;;;;10370253;28;20501;-60
2022/05/12 02:08:46;;;;;;;6.50;5.20;;;;;;;;;;10370496;28;20042;-59
2022/05/12 02:13:47;;;;;;;6.45;4.25;;;;;;;;;;10372867;28;20592;-59
2022/05/12 02:18:47;;;;;;;8.18;4.85;;;;;;;;;;10363338;28;20394;-59
2022/05/12 02:23:48;;;;;;;6.68;4.50;;;;;;;;;;10364134;28;20406;-59
2022/05/12 02:28:49;;;;;;;7.13;4.30;;;;;;;;;;10360593;28;20500;-59
2022/05/12 02:33:50;;;;;;;6.40;4.60;;;;;;;;;;10371614;28;20034;-59
2022/05/12 02:38:50;;;;;;;7.18;4.90;;;;;;;;;;10371573;28;20425;-59
2022/05/12 02:43:51;;;;;;;5.72;4.63;;;;;;;;;;10369636;28;20319;-60
2022/05/12 02:48:52;;;;;;;8.15;5.10;;;;;;;;;;10362797;28;20441;-60
2022/05/12 02:53:52;;;;;;;5.80;4.25;;;;;;;;;;10371044;28;20045;-60
2022/05/12 02:58:53;;;;;;;7.68;4.70;;;;;;;;;;10367305;28;20030;-60
2022/05/12 03:03:54;;;;;;;6.40;4.13;;;;;;;;;;10363199;28;20037;-59
2022/05/12 03:08:55;;;;;;;5.05;4.50;;;;;;;;;;10370259;28;20028;-59
2022/05/12 03:13:55;;;;;;;6.03;4.40;;;;;;;;;;10370279;28;20038;-59
2022/05/12 03:18:57;;;;;;;5.53;4.20;;;;;;;;;;10367881;28;20528;-59
2022/05/12 03:23:58;;;;;;;5.88;3.85;;;;;;;;;;10369488;28;20124;-59
2022/05/12 03:28:58;;;;;;;6.20;4.70;;;;;;;;;;10364524;28;20451;-58
2022/05/12 03:34:00;;;;;;;7.55;4.57;;;;;;;;;;10359968;28;20030;-59
2022/05/12 03:39:01;;;;;;;6.38;4.28;;;;;;;;;;10369518;28;20032;-58
2022/05/12 03:49:21;;;;;;;9.90;4.68;;;;;;;;;;10366486;28;20034;-59
2022/05/12 03:54:21;;;;;;;6.38;3.90;;;;;;;;;;10357571;28;20034;-60
2022/05/12 03:59:23;;;;;;;6.07;3.72;;;;;;;;;;10368958;28;20076;-60
2022/05/12 04:04:23;;;;;;;4.22;3.70;;;;;;;;;;10369922;28;20400;-59
2022/05/12 04:09:25;;;;;;;5.72;3.67;;;;;;;;;;10361409;28;20076;-60
2022/05/12 04:14:26;;;;;;;6.85;3.90;;;;;;;;;;10365755;28;20041;-59
2022/05/12 04:19:28;;;;;;;5.75;3.90;;;;;;;;;;10369019;28;20053;-59
2022/05/12 04:24:28;;;;;;;5.57;3.72;;;;;;;;;;10371239;28;20068;-60
2022/05/12 04:29:29;;;;;;;6.60;3.80;;;;;;;;;;10360828;28;20022;-60
2022/05/12 04:39:49;;;;;;;6.40;3.88;;;;;;;;;;10366447;28;20068;-60
2022/05/12 04:44:49;;;;;;;6.22;3.53;;;;;;;;;;10364536;28;20478;-60
2022/05/12 04:49:50;;;;;;;4.75;3.70;;;;;;;;;;10364590;28;20508;-60
2022/05/12 04:54:54;;;;;;;4.18;3.78;;;;;;;;;;10368579;28;20029;-60
2022/05/12 04:59:55;;;;;;;4.53;3.97;;;;;;;;;;10336523;28;20030;-58
2022/05/12 05:04:56;;;;;;;4.40;3.63;;;;;;;;;;10362826;28;20034;-59
2022/05/12 05:09:56;;;;;;;4.30;3.85;;;;;;;;;;10352217;28;20030;-59
2022/05/12 05:14:58;;;;;;;4.72;3.88;;;;;;;;;;10336257;28;20080;-59
2022/05/12 05:19:58;;;;;;;7.95;3.67;;;;;;;;;;10342636;28;20434;-59
2022/05/12 05:25:00;;;;;;;4.30;3.35;;;;;;;;;;10362700;28;20096;-59
2022/05/12 05:30:01;;;;;;;5.35;3.70;;;;;;;;;;10360176;28;20036;-59
2022/05/12 05:35:03;;;;;;;4.70;3.78;;;;;;;;;;10357264;28;20029;-59
2022/05/12 05:40:05;;;;;;;4.53;3.65;;;;;;;;;;10362906;28;20111;-59
2022/05/12 05:45:11;;;;;;;10.10;4.03;;;;;;;;;;10370371;28;20033;-59
2022/05/12 05:50:15;;;;;;;4.60;3.33;;;;;;;;;;10366144;28;20440;-58
2022/05/12 05:55:16;;;;;;;4.55;3.58;;;;;;;;;;10373303;28;20458;-59
2022/05/12 06:00:18;;;;;;;8.00;3.90;;;;;;;;;;10373504;28;20129;-58
2022/05/12 06:05:19;;;;;;;4.18;3.67;;;;;;;;;;10371846;28;20100;-58
2022/05/12 06:10:20;;;;;;;6.88;4.25;;;;;;;;;;10372843;28;20060;-58
2022/05/12 06:15:23;;;;;;;4.50;3.42;;;;;;;;;;10372660;28;20038;-58
2022/05/12 06:20:24;;;;;;;5.28;3.50;;;;;;;;;;10370452;28;20421;-59
2022/05/12 06:25:25;;;;;;;4.03;3.60;;;;;;;;;;10366800;28;20034;-59
2022/05/12 06:30:27;;;;;;;4.13;3.53;;;;;;;;;;10369566;28;20034;-59
2022/05/12 06:35:27;;;;;;;5.05;3.72;;;;;;;;;;10368948;28;20030;-59
2022/05/12 06:40:28;;;;;;;5.55;3.55;;;;;;;;;;10359147;28;20389;-59
2022/05/12 06:45:29;;;;;;;4.97;3.47;;;;;;;;;;10369115;28;20073;-59
2022/05/12 06:50:31;;;;;;;4.45;3.80;;;;;;;;;;10368000;28;20034;-59
2022/05/12 06:55:32;;;;;;;9.00;3.90;;;;;;;;;;10362483;28;20495;-59
2022/05/12 07:00:33;;;;;;;4.60;3.63;;;;;;;;;;10366276;28;20030;-59
2022/05/12 07:05:34;;;;;;;4.78;3.63;;;;;;;;;;10366618;28;20062;-59
2022/05/12 07:10:36;;;;;;;5.45;3.50;;;;;;;;;;10368677;28;20034;-59
2022/05/12 07:15:36;;;;;;;5.53;3.95;;;;;;;;;;10363356;28;20374;-59
2022/05/12 07:31:16;;;;;;;4.35;3.30;;;;;;;;;;10367491;28;20033;-58
2022/05/12 07:36:25;;;;;;;6.07;3.47;;;;;;;;;;10367383;28;20590;-59
2022/05/12 07:41:27;;;;;;;6.90;3.20;;;;;;;;;;10369171;28;20049;-59
2022/05/12 07:46:30;;;;;;;5.60;3.35;;;;;;;;;;10367882;28;20038;-58
2022/05/12 07:51:31;;;;;;;5.40;3.20;;;;;;;;;;10357206;28;20060;-59
2022/05/12 07:56:32;;;;;;;5.55;3.30;;;;;;;;;;10368667;28;20525;-60
2022/05/12 08:01:33;;;;;;;4.78;3.47;;;;;;;;;;10359394;28;20113;-59
2022/05/12 08:06:33;;;;;;;4.75;3.40;;;;;;;;;;10359957;28;20157;-59
2022/05/12 08:11:34;;;;;;;8.95;3.78;;;;;;;;;;10368280;28;20259;-59
2022/05/12 08:16:35;;;;;;;5.25;3.58;;;;;;;;;;10367090;28;20049;-58
2022/05/12 08:21:35;;;;;;;13.02;3.90;;;;;;;;;;10363131;28;20050;-61
2022/05/12 08:26:36;;;;;;;7.05;4.13;;;;;;;;;;10367540;28;20543;-61
2022/05/12 08:31:37;;;;;;;12.18;3.55;;;;;;;;;;10365769;28;20100;-61
2022/05/12 08:36:37;;;;;;;7.78;4.15;;;;;;;;;;10366536;28;20052;-62
2022/05/12 08:41:52;;;;;;;14.98;4.20;;;;;;;;;;10366318;28;20026;-62
2022/05/12 08:46:58;;;;;;;5.60;3.70;;;;;;;;;;10364763;28;20148;-61
2022/05/12 08:52:35;;;;;;;5.30;3.50;;;;;;;;;;10376577;28;20613;-61
2022/05/12 08:57:57;;;;;;;6.85;3.95;;;;;;;;;;10365515;28;20033;-61
2022/05/12 09:03:17;;;;;;;7.80;4.10;;;;;;;;;;10356183;28;20030;-62
2022/05/12 09:08:45;;;;;;;13.55;4.43;;;;;;;;;;10372271;28;20033;-59
2022/05/12 09:13:50;;;;;;;8.32;4.15;;;;;;;;;;10359626;28;20033;-59
2022/05/12 09:18:53;;;;;;;8.02;3.72;;;;;;;;;;10364783;28;20049;-59
2022/05/12 09:23:54;;;;;;;9.65;3.90;;;;;;;;;;10365909;28;20049;-60
2022/05/12 09:29:24;;;;;;;7.40;4.10;;;;;;;;;;10364261;28;20030;-57
2022/05/12 09:34:43;;;;;;;5.35;4.15;;;;;;;;;;10360802;28;20038;-57
2022/05/12 09:39:50;;;;;;;6.93;4.15;;;;;;;;;;10365202;28;20049;-58
2022/05/12 09:45:01;;;;;;;6.13;4.07;;;;;;;;;;10365057;28;20425;-59
2022/05/12 09:50:22;;;;;;;8.00;4.78;;;;;;;;;;10369679;28;20030;-60
2022/05/12 09:55:29;;;;;;;7.72;3.80;;;;;;;;;;10364909;28;20109;-59
2022/05/12 10:00:30;;;;;;;8.50;4.10;;;;;;;;;;10357640;28;20113;-58
2022/05/12 10:11:01;;;;;;;15.05;6.25;;;;;;;;;;10366240;28;20038;-58
2022/05/12 10:16:01;;;;;;;20.75;7.32;;;;;;;;;;10360046;28;20043;-58
2022/05/12 10:21:43;;;;;;;17.98;6.85;;;;;;;;;;10362288;28;20039;-58
2022/05/12 10:26:54;;;;;;;16.95;6.95;;;;;;;;;;10358690;28;20037;-59
2022/05/12 10:32:25;;;;;;;13.40;6.43;;;;;;;;;;10369835;28;20076;-59
2022/05/12 10:38:12;;;;;;;13.88;6.07;;;;;;;;;;10368411;28;20032;-59
2022/05/12 10:43:29;;;;;;;13.60;6.03;;;;;;;;;;10362247;28;20069;-59
2022/05/12 10:48:50;;;;;;;11.70;6.13;;;;;;;;;;10367918;28;20387;-59
2022/05/12 10:54:03;;;;;;;17.40;5.80;;;;;;;;;;10362761;28;20053;-59
2022/05/12 10:59:44;;;;;;;9.63;5.80;;;;;;;;;;10360195;28;20056;-59
2022/05/12 11:04:54;;;;;;;11.27;6.10;;;;;;;;;;10365055;28;20061;-59
2022/05/12 11:10:25;;;;;;;9.05;5.60;;;;;;;;;;10366802;28;20037;-59
2022/05/12 11:16:09;;;;;;;15.07;5.60;;;;;;;;;;10364049;28;20061;-58
2022/05/12 11:21:28;;;;;;;10.20;5.82;;;;;;;;;;10363732;28;20048;-59
2022/05/12 11:27:05;;;;;;;10.75;5.90;;;;;;;;;;10361843;28;20511;-59
2022/05/12 11:32:21;;;;;;;10.00;6.97;;;;;;;;;;10366207;28;20030;-59
2022/05/12 11:37:35;;;;;;;12.50;6.85;;;;;;;;;;10356739;28;20061;-59
2022/05/12 11:48:40;;;;;;;11.70;6.32;;;;;;;;;;10362569;28;20029;-59
2022/05/12 11:54:03;;;;;;;10.48;6.32;;;;;;;;;;10345827;28;20029;-58
2022/05/12 11:59:30;;;;;;;8.60;6.65;;;;;;;;;;10357180;28;20034;-60
2022/05/12 12:04:37;;;;;;;13.35;6.78;;;;;;;;;;10342654;28;20427;-59
2022/05/12 12:09:37;;;;;;;9.98;6.93;;;;;;;;;;10360011;28;20101;-59
2022/05/12 12:14:46;;;;;;;9.73;6.40;;;;;;;;;;10358592;28;20410;-59
2022/05/12 12:19:49;;;;;;;10.55;7.57;;;;;;;;;;10343113;28;20573;-61
2022/05/12 12:24:57;;;;;;;12.50;6.93;;;;;;;;;;10344377;28;20068;-60
2022/05/12 12:30:31;;;;;;;12.20;6.97;;;;;;;;;;10343863;28;20037;-61
2022/05/12 12:36:00;;;;;;;11.98;6.68;;;;;;;;;;10340430;28;20060;-61
2022/05/12 12:41:02;;;;;;;9.52;6.50;;;;;;;;;;10356547;28;20125;-61
2022/05/12 12:46:30;;;;;;;7.75;6.93;;;;;;;;;;10340656;28;20042;-61
2022/05/12 12:51:34;;;;;;;11.88;7.03;;;;;;;;;;10341117;28;20563;-60
2022/05/12 12:56:35;;;;;;;11.32;7.15;;;;;;;;;;10340381;28;20045;-60
2022/05/12 13:01:59;;;;;;;13.70;6.38;;;;;;;;;;10343696;28;20034;-61
2022/05/12 13:07:07;;;;;;;11.45;6.93;;;;;;;;;;10364912;28;20029;-58
2022/05/12 13:12:24;;;;;;;10.45;7.30;;;;;;;;;;10365535;28;20389;-60
2022/05/12 13:17:36;;;;;;;12.52;6.90;;;;;;;;;;10357468;28;20072;-60
2022/05/12 13:22:50;;;;;;;8.98;7.32;;;;;;;;;;10364111;28;20470;-61
2022/05/12 13:27:51;;;;;;;10.38;6.70;;;;;;;;;;10358757;28;20037;-60
2022/05/12 13:33:01;;;;;;;15.88;7.75;;;;;;;;;;10357274;28;20035;-60
2022/05/12 13:38:07;;;;;;;10.88;8.20;;;;;;;;;;10336647;28;20034;-59
2022/05/12 13:43:19;;;;;;;9.88;7.40;;;;;;;;;;10341267;28;20032;-59
2022/05/12 13:48:22;;;;;;;9.32;7.00;;;;;;;;;;10342568;28;20478;-59
2022/05/12 13:53:45;;;;;;;12.80;7.43;;;;;;;;;;10342217;28;20654;-60
2022/05/12 13:58:52;;;;;;;11.95;7.35;;;;;;;;;;10346104;28;20121;-58
2022/05/12 14:04:11;;;;;;;75.73;9.63;;;;;;;;;;10355818;28;20112;-59
2022/05/12 14:09:21;;;;;;;42.70;8.13;;;;;;;;;;10359569;28;20038;-56
2022/05/12 14:19:49;;;;;;;74.28;10.20;;;;;;;;;;10365155;28;20047;-60
2022/05/12 14:24:50;;;;;;;47.38;9.32;;;;;;;;;;10352797;28;20054;-47
2022/05/12 14:29:50;;;;;;;64.65;9.85;;;;;;;;;;10353065;28;20025;-47
2022/05/12 14:34:54;;;;;;;49.20;9.25;;;;;;;;;;10349550;28;20034;-46
2022/05/12 14:39:55;;;;;;;34.45;7.95;;;;;;;;;;10346476;28;20036;-46
2022/05/12 14:44:56;;;;;;;25.65;7.18;;;;;;;;;;10361428;28;20029;-47
2022/05/12 14:49:57;;;;;;;23.30;7.75;;;;;;;;;;10369351;28;20040;-46
2022/05/12 14:54:57;;;;;;;40.28;7.90;;;;;;;;;;10368697;28;20038;-46
2022/05/12 14:59:58;;;;;;;28.13;7.40;;;;;;;;;;10357542;28;20045;-47
2022/05/12 15:04:59;;;;;;;17.10;6.65;;;;;;;;;;10335916;28;20497;-47
2022/05/12 15:10:00;;;;;;;17.20;7.60;;;;;;;;;;10362695;28;20482;-46
2022/05/12 15:15:01;;;;;;;37.50;7.80;;;;;;;;;;10378321;23;20049;-40
2022/05/12 15:20:07;;;;;;;21.52;7.15;;;;;;;;;;10355314;28;20482;-40
2022/05/12 15:25:09;;;;;;;17.85;6.90;;;;;;;;;;10357592;28;20086;-40
2022/05/12 15:30:15;;;;;;;20.40;6.95;;;;;;;;;;10365762;28;20037;-40
2022/05/12 15:35:19;;;;;;;26.52;7.47;;;;;;;;;;10352895;28;20044;-40
2022/05/12 15:40:21;;;;;;;13.85;6.00;;;;;;;;;;10356185;28;20034;-43
2022/05/12 15:45:22;;;;;;;22.85;6.55;;;;;;;;;;10353360;28;20486;-43
2022/05/12 15:50:29;;;;;;;14.20;6.50;;;;;;;;;;10357743;28;20026;-42
2022/05/12 15:55:30;;;;;;;12.15;6.47;;;;;;;;;;10359244;28;20786;-43
2022/05/12 16:00:30;;;;;;;15.55;6.88;;;;;;;;;;10359978;28;20032;-43
2022/05/12 16:05:31;;;;;;;13.50;6.05;;;;;;;;;;10342346;28;20022;-43
2022/05/12 16:10:33;;;;;;;10.95;6.25;;;;;;;;;;10357031;28;20092;-41
2022/05/12 16:15:36;;;;;;;11.48;6.25;;;;;;;;;;10360461;28;20069;-41
2022/05/12 16:20:36;;;;;;;15.65;5.40;;;;;;;;;;10360639;28;20493;-43
2022/05/12 16:26:00;;;;;;;10.25;5.85;;;;;;;;;;10348629;28;20033;-43
2022/05/12 16:31:01;;;;;;;11.02;5.95;;;;;;;;;;10351968;28;20118;-43
2022/05/12 16:36:04;;;;;;;6.32;5.28;;;;;;;;;;10366578;28;20033;-41
2022/05/12 16:41:06;;;;;;;10.82;5.22;;;;;;;;;;10357765;28;20120;-41
2022/05/12 16:46:07;;;;;;;8.40;5.80;;;;;;;;;;10351881;28;20060;-41
2022/05/12 16:51:07;;;;;;;11.43;5.88;;;;;;;;;;10340884;28;20117;-40
2022/05/12 16:56:08;;;;;;;15.05;4.80;;;;;;;;;;10335632;28;20042;-43
2022/05/12 17:01:09;;;;;;;8.95;5.32;;;;;;;;;;10335275;28;20061;-40
2022/05/12 17:06:11;;;;;;;9.98;5.30;;;;;;;;;;10344374;28;20421;-40
2022/05/12 17:11:12;;;;;;;9.25;5.43;;;;;;;;;;10347056;28;20037;-40
2022/05/12 17:16:13;;;;;;;12.15;5.25;;;;;;;;;;10341321;28;20506;-40
2022/05/12 17:21:14;;;;;;;10.50;5.70;;;;;;;;;;10355619;28;20112;-40
2022/05/12 17:26:15;;;;;;;7.75;4.90;;;;;;;;;;10356087;28;20446;-40
2022/05/12 17:31:16;;;;;;;9.90;5.55;;;;;;;;;;10357041;28;20111;-40
2022/05/12 17:36:17;;;;;;;9.60;5.47;;;;;;;;;;10360536;28;20129;-40
2022/05/12 17:41:18;;;;;;;9.45;5.90;;;;;;;;;;10364304;28;20061;-41
2022/05/12 17:46:19;;;;;;;9.30;5.13;;;;;;;;;;10341408;28;20038;-43
2022/05/12 17:51:20;;;;;;;10.68;5.65;;;;;;;;;;10347725;28;20092;-42
2022/05/12 17:56:22;;;;;;;13.63;5.45;;;;;;;;;;10339859;28;20485;-40
2022/05/12 18:01:22;;;;;;;13.15;6.28;;;;;;;;;;10339079;28;20401;-40
2022/05/12 18:06:23;;;;;;;12.20;5.60;;;;;;;;;;10344048;28;20033;-40
2022/05/12 18:11:24;;;;;;;7.78;5.72;;;;;;;;;;10340081;28;20105;-40
2022/05/12 18:16:27;;;;;;;10.20;6.95;;;;;;;;;;10334541;28;20042;-40
2022/05/12 18:21:28;;;;;;;11.50;6.00;;;;;;;;;;10338891;28;20026;-40
2022/05/12 18:26:28;;;;;;;14.00;5.50;;;;;;;;;;10340288;28;20029;-41
2022/05/12 18:31:29;;;;;;;12.45;5.80;;;;;;;;;;10349692;28;20121;-41
2022/05/12 18:36:30;;;;;;;11.10;5.63;;;;;;;;;;10359920;28;20038;-41
2022/05/12 18:41:32;;;;;;;16.45;5.90;;;;;;;;;;10354633;28;20260;-41
2022/05/12 18:46:35;;;;;;;7.30;5.43;;;;;;;;;;10352384;28;20115;-41
2022/05/12 18:51:36;;;;;;;10.45;5.22;;;;;;;;;;10354575;28;20030;-41
2022/05/12 18:56:37;;;;;;;8.90;5.10;;;;;;;;;;10351121;28;20100;-41
2022/05/12 19:01:37;;;;;;;13.25;5.38;;;;;;;;;;10363783;28;20061;-41
2022/05/12 19:06:38;;;;;;;13.10;5.00;;;;;;;;;;10357133;28;20026;-42
2022/05/12 19:11:38;;;;;;;15.48;5.30;;;;;;;;;;10351757;28;20022;-41
2022/05/12 19:16:39;;;;;;;10.43;5.45;;;;;;;;;;10344885;28;20038;-41
2022/05/12 19:21:41;;;;;;;11.20;5.18;;;;;;;;;;10321071;28;20030;-41
2022/05/12 19:26:42;;;;;;;10.77;5.20;;;;;;;;;;10345502;28;20029;-41
2022/05/12 19:31:45;;;;;;;9.93;4.90;;;;;;;;;;10343365;28;20037;-41
2022/05/12 19:36:45;;;;;;;7.82;4.82;;;;;;;;;;10342039;28;20497;-41
2022/05/12 19:41:46;;;;;;;7.20;4.70;;;;;;;;;;10347777;28;20033;-42
2022/05/12 19:46:47;;;;;;;20.40;4.93;;;;;;;;;;10349045;28;20030;-41
2022/05/12 19:51:49;;;;;;;13.02;4.78;;;;;;;;;;10348634;28;20053;-41
2022/05/12 19:56:50;;;;;;;15.43;4.93;;;;;;;;;;10331377;28;20037;-40
2022/05/12 20:01:50;;;;;;;14.52;5.47;;;;;;;;;;10327542;28;20689;-41
2022/05/12 20:06:51;;;;;;;16.73;5.55;;;;;;;;;;10324644;28;20097;-41
2022/05/12 20:11:52;;;;;;;14.25;4.82;;;;;;;;;;10327623;28;20034;-41
2022/05/12 20:16:56;;;;;;;11.65;4.43;;;;;;;;;;10331049;28;20732;-41
2022/05/12 20:21:58;;;;;;;8.38;4.93;;;;;;;;;;10329895;28;20113;-40
2022/05/12 20:26:58;;;;;;;6.97;4.30;;;;;;;;;;10321152;28;20045;-40
2022/05/12 20:32:00;;;;;;;7.97;4.43;;;;;;;;;;10327133;28;20532;-41
2022/05/12 20:37:00;;;;;;;8.65;4.03;;;;;;;;;;10338588;28;20026;-41
2022/05/12 20:42:01;;;;;;;13.57;4.68;;;;;;;;;;10341302;28;20025;-41
2022/05/12 20:47:01;;;;;;;8.68;4.60;;;;;;;;;;10349023;28;20093;-41
2022/05/12 20:52:02;;;;;;;6.68;4.03;;;;;;;;;;10344346;28;20128;-41
2022/05/12 20:57:03;;;;;;;11.40;4.55;;;;;;;;;;10347127;28;20095;-41
2022/05/12 21:02:04;;;;;;;8.80;4.32;;;;;;;;;;10347302;28;20045;-41
2022/05/12 21:07:06;;;;;;;5.70;4.20;;;;;;;;;;10342485;28;20049;-41
2022/05/12 21:12:07;;;;;;;5.30;3.72;;;;;;;;;;10356481;28;20041;-41
2022/05/12 21:17:09;;;;;;;11.13;4.28;;;;;;;;;;10317102;28;20404;-41
2022/05/12 21:22:10;;;;;;;8.35;4.25;;;;;;;;;;10333250;28;20030;-41
2022/05/12 21:27:12;;;;;;;7.05;4.15;;;;;;;;;;10342052;28;20389;-41
2022/05/12 21:32:18;;;;;;;13.73;4.50;;;;;;;;;;10347446;28;20078;-41
2022/05/12 21:37:20;;;;;;;9.25;4.70;;;;;;;;;;10327261;28;20612;-42
2022/05/12 21:42:21;;;;;;;12.30;4.75;;;;;;;;;;10347793;28;20050;-42
2022/05/12 21:47:22;;;;;;;9.63;4.43;;;;;;;;;;10355875;28;20113;-41
2022/05/12 21:52:23;;;;;;;13.98;4.95;;;;;;;;;;10342953;28;20038;-40
2022/05/12 22:02:42;;;;;;;6.95;4.00;;;;;;;;;;10353672;28;20034;-42
2022/05/12 22:07:43;;;;;;;8.43;4.90;;;;;;;;;;10350675;28;20025;-41
2022/05/12 22:12:43;;;;;;;13.07;4.00;;;;;;;;;;10354010;28;20117;-41
2022/05/12 22:17:44;;;;;;;6.65;4.25;;;;;;;;;;10362935;28;20505;-41
2022/05/12 22:22:44;;;;;;;6.63;4.03;;;;;;;;;;10355988;28;20028;-41
2022/05/12 22:27:45;;;;;;;11.98;4.70;;;;;;;;;;10361003;28;20034;-41
2022/05/12 22:32:46;;;;;;;8.65;3.85;;;;;;;;;;10354275;28;20107;-41
2022/05/12 22:37:47;;;;;;;11.02;4.57;;;;;;;;;;10361759;28;20030;-41
2022/05/12 22:42:47;;;;;;;8.23;4.63;;;;;;;;;;10351499;28;20026;-41
2022/05/12 22:47:48;;;;;;;5.63;3.75;;;;;;;;;;10345164;28;20022;-41
2022/05/12 22:52:49;;;;;;;9.85;4.10;;;;;;;;;;10351814;28;20041;-41
2022/05/12 22:57:50;;;;;;;6.07;3.95;;;;;;;;;;10355771;28;20052;-41
2022/05/12 23:02:51;;;;;;;18.20;4.57;;;;;;;;;;10359079;28;20033;-42
2022/05/12 23:07:52;;;;;;;14.63;4.40;;;;;;;;;;10360510;28;20021;-42
2022/05/12 23:12:52;;;;;;;10.85;4.68;;;;;;;;;;10352675;28;20034;-42
2022/05/12 23:17:54;;;;;;;17.30;5.03;;;;;;;;;;10354316;28;20046;-43
2022/05/12 23:22:55;;;;;;;13.55;4.60;;;;;;;;;;10349029;28;20097;-42
2022/05/12 23:27:56;;;;;;;18.40;4.70;;;;;;;;;;10353132;28;20022;-42
2022/05/12 23:32:56;;;;;;;13.80;4.88;;;;;;;;;;10350703;28;20088;-43
2022/05/12 23:37:57;;;;;;;11.73;4.40;;;;;;;;;;10352747;28;20092;-41
2022/05/12 23:42:58;;;;;;;7.60;3.85;;;;;;;;;;10357939;28;20033;-41
2022/05/12 23:47:59;;;;;;;14.55;4.90;;;;;;;;;;10353722;28;20054;-42
2022/05/12 23:53:00;;;;;;;11.32;4.57;;;;;;;;;;10343374;28;20037;-42
2022/05/12 23:58:01;;;;;;;14.75;4.38;;;;;;;;;;10355301;28;20033;-42
